sensor_id;sensor_type;location;lat;lon;timestamp;P1;durP1;ratioP1;P2;durP2;ratioP2
64667;SDS011;51077;42.716;23.344;2023-04-29T00:00:03;8.95;;;5.50;;
64667;SDS011;51077;42.716;23.344;2023-04-29T00:02:32;13.45;;;4.80;;
64667;SDS011;51077;42.716;23.344;2023-04-29T00:04:58;9.20;;;4.73;;
64667;SDS011;51077;42.716;23.344;2023-04-29T00:07:23;10.73;;;5.20;;
64667;SDS011;51077;42.716;23.344;2023-04-29T00:09:48;7.97;;;4.63;;
64667;SDS011;51077;42.716;23.344;2023-04-29T00:12:14;8.00;;;4.33;;
64667;SDS011;51077;42.716;23.344;2023-04-29T00:14:39;9.40;;;4.70;;
64667;SDS011;51077;42.716;23.344;2023-04-29T00:17:07;8.40;;;4.80;;
64667;SDS011;51077;42.716;23.344;2023-04-29T00:19:32;10.73;;;4.70;;
64667;SDS011;51077;42.716;23.344;2023-04-29T00:21:57;8.47;;;4.53;;
64667;SDS011;51077;42.716;23.344;2023-04-29T00:24:23;11.53;;;4.77;;
64667;SDS011;51077;42.716;23.344;2023-04-29T00:26:49;10.77;;;4.80;;
64667;SDS011;51077;42.716;23.344;2023-04-29T00:29:14;9.33;;;4.90;;
64667;SDS011;51077;42.716;23.344;2023-04-29T00:31:39;10.27;;;4.60;;
64667;SDS011;51077;42.716;23.344;2023-04-29T00:34:05;9.73;;;4.70;;
64667;SDS011;51077;42.716;23.344;2023-04-29T00:36:30;9.97;;;4.90;;
64667;SDS011;51077;42.716;23.344;2023-04-29T00:38:56;10.03;;;4.83;;
64667;SDS011;51077;42.716;23.344;2023-04-29T00:41:22;10.17;;;4.50;;
64667;SDS011;51077;42.716;23.344;2023-04-29T00:43:48;8.70;;;4.45;;
64667;SDS011;51077;42.716;23.344;2023-04-29T00:46:13;8.97;;;4.20;;
64667;SDS011;51077;42.716;23.344;2023-04-29T00:48:39;6.90;;;4.40;;
64667;SDS011;51077;42.716;23.344;2023-04-29T00:51:05;8.18;;;4.35;;
64667;SDS011;51077;42.716;23.344;2023-04-29T00:53:31;9.77;;;5.15;;
64667;SDS011;51077;42.716;23.344;2023-04-29T00:55:58;7.88;;;4.15;;
64667;SDS011;51077;42.716;23.344;2023-04-29T00:58:25;7.25;;;4.00;;
64667;SDS011;51077;42.716;23.344;2023-04-29T01:00:58;9.90;;;5.00;;
64667;SDS011;51077;42.716;23.344;2023-04-29T01:03:24;7.93;;;4.43;;
64667;SDS011;51077;42.716;23.344;2023-04-29T01:05:50;8.33;;;3.90;;
64667;SDS011;51077;42.716;23.344;2023-04-29T01:11:21;9.25;;;4.35;;
64667;SDS011;51077;42.716;23.344;2023-04-29T01:13:50;9.65;;;4.90;;
64667;SDS011;51077;42.716;23.344;2023-04-29T01:16:26;9.18;;;4.57;;
64667;SDS011;51077;42.716;23.344;2023-04-29T01:18:59;8.07;;;4.53;;
64667;SDS011;51077;42.716;23.344;2023-04-29T01:21:27;6.47;;;4.38;;
64667;SDS011;51077;42.716;23.344;2023-04-29T01:23:55;8.70;;;4.85;;
64667;SDS011;51077;42.716;23.344;2023-04-29T01:26:21;9.53;;;4.23;;
64667;SDS011;51077;42.716;23.344;2023-04-29T01:39:28;9.00;;;5.05;;
64667;SDS011;51077;42.716;23.344;2023-04-29T01:44:42;9.73;;;5.20;;
64667;SDS011;51077;42.716;23.344;2023-04-29T01:47:08;9.50;;;5.27;;
64667;SDS011;51077;42.716;23.344;2023-04-29T01:49:37;10.15;;;5.45;;
64667;SDS011;51077;42.716;23.344;2023-04-29T01:52:03;10.25;;;5.18;;
64667;SDS011;51077;42.716;23.344;2023-04-29T01:54:29;10.87;;;5.93;;
64667;SDS011;51077;42.716;23.344;2023-04-29T01:56:55;11.47;;;6.63;;
64667;SDS011;51077;42.716;23.344;2023-04-29T01:59:21;14.00;;;7.40;;
64667;SDS011;51077;42.716;23.344;2023-04-29T02:01:46;14.07;;;7.23;;
64667;SDS011;51077;42.716;23.344;2023-04-29T02:04:12;15.47;;;7.27;;
64667;SDS011;51077;42.716;23.344;2023-04-29T02:06:37;12.87;;;7.40;;
64667;SDS011;51077;42.716;23.344;2023-04-29T02:09:03;12.57;;;6.90;;
64667;SDS011;51077;42.716;23.344;2023-04-29T02:11:28;16.23;;;6.93;;
64667;SDS011;51077;42.716;23.344;2023-04-29T02:13:54;11.63;;;6.63;;
64667;SDS011;51077;42.716;23.344;2023-04-29T02:16:19;10.40;;;5.70;;
64667;SDS011;51077;42.716;23.344;2023-04-29T02:18:45;8.50;;;5.03;;
64667;SDS011;51077;42.716;23.344;2023-04-29T02:21:10;11.77;;;5.70;;
64667;SDS011;51077;42.716;23.344;2023-04-29T02:23:36;11.23;;;5.23;;
64667;SDS011;51077;42.716;23.344;2023-04-29T02:26:02;10.37;;;6.10;;
64667;SDS011;51077;42.716;23.344;2023-04-29T02:28:31;9.07;;;4.70;;
64667;SDS011;51077;42.716;23.344;2023-04-29T02:30:57;8.05;;;5.20;;
64667;SDS011;51077;42.716;23.344;2023-04-29T02:33:22;9.00;;;4.50;;
64667;SDS011;51077;42.716;23.344;2023-04-29T02:35:48;7.57;;;4.00;;
64667;SDS011;51077;42.716;23.344;2023-04-29T02:38:13;8.97;;;4.37;;
64667;SDS011;51077;42.716;23.344;2023-04-29T02:40:45;8.90;;;4.37;;
64667;SDS011;51077;42.716;23.344;2023-04-29T02:43:11;13.98;;;5.47;;
64667;SDS011;51077;42.716;23.344;2023-04-29T02:45:37;9.85;;;4.22;;
64667;SDS011;51077;42.716;23.344;2023-04-29T02:48:04;8.30;;;4.80;;
64667;SDS011;51077;42.716;23.344;2023-04-29T02:50:30;9.25;;;4.72;;
64667;SDS011;51077;42.716;23.344;2023-04-29T02:52:55;7.07;;;4.50;;
64667;SDS011;51077;42.716;23.344;2023-04-29T02:55:21;7.20;;;4.05;;
64667;SDS011;51077;42.716;23.344;2023-04-29T02:57:47;7.73;;;4.40;;
64667;SDS011;51077;42.716;23.344;2023-04-29T03:00:12;8.57;;;4.27;;
64667;SDS011;51077;42.716;23.344;2023-04-29T03:02:38;8.13;;;4.13;;
64667;SDS011;51077;42.716;23.344;2023-04-29T03:05:03;7.07;;;4.03;;
64667;SDS011;51077;42.716;23.344;2023-04-29T03:07:30;15.27;;;5.18;;
64667;SDS011;51077;42.716;23.344;2023-04-29T03:09:56;10.52;;;5.20;;
64667;SDS011;51077;42.716;23.344;2023-04-29T03:12:21;11.07;;;5.20;;
64667;SDS011;51077;42.716;23.344;2023-04-29T03:14:47;10.43;;;5.40;;
64667;SDS011;51077;42.716;23.344;2023-04-29T03:17:12;8.73;;;4.40;;
64667;SDS011;51077;42.716;23.344;2023-04-29T03:19:39;8.85;;;4.53;;
64667;SDS011;51077;42.716;23.344;2023-04-29T03:22:04;6.67;;;4.40;;
64667;SDS011;51077;42.716;23.344;2023-04-29T03:24:32;8.63;;;5.10;;
64667;SDS011;51077;42.716;23.344;2023-04-29T03:26:57;8.13;;;4.53;;
64667;SDS011;51077;42.716;23.344;2023-04-29T03:29:24;7.45;;;4.10;;
64667;SDS011;51077;42.716;23.344;2023-04-29T03:31:51;10.10;;;4.93;;
64667;SDS011;51077;42.716;23.344;2023-04-29T03:34:17;11.70;;;5.07;;
64667;SDS011;51077;42.716;23.344;2023-04-29T03:36:42;9.47;;;4.53;;
64667;SDS011;51077;42.716;23.344;2023-04-29T03:39:07;10.27;;;5.20;;
64667;SDS011;51077;42.716;23.344;2023-04-29T03:41:33;8.73;;;4.67;;
64667;SDS011;51077;42.716;23.344;2023-04-29T03:43:58;7.90;;;4.73;;
64667;SDS011;51077;42.716;23.344;2023-04-29T03:46:27;9.13;;;4.03;;
64667;SDS011;51077;42.716;23.344;2023-04-29T03:48:53;10.45;;;4.55;;
64667;SDS011;51077;42.716;23.344;2023-04-29T03:51:20;8.95;;;4.25;;
64667;SDS011;51077;42.716;23.344;2023-04-29T03:53:47;7.95;;;5.05;;
64667;SDS011;51077;42.716;23.344;2023-04-29T03:56:12;8.13;;;4.67;;
64667;SDS011;51077;42.716;23.344;2023-04-29T03:58:37;10.00;;;5.03;;
64667;SDS011;51077;42.716;23.344;2023-04-29T04:01:03;10.20;;;5.00;;
64667;SDS011;51077;42.716;23.344;2023-04-29T04:03:28;10.93;;;5.60;;
64667;SDS011;51077;42.716;23.344;2023-04-29T04:05:54;18.80;;;7.97;;
64667;SDS011;51077;42.716;23.344;2023-04-29T04:08:19;16.40;;;7.97;;
64667;SDS011;51077;42.716;23.344;2023-04-29T04:10:44;21.73;;;10.30;;
64667;SDS011;51077;42.716;23.344;2023-04-29T04:13:10;21.63;;;9.23;;
64667;SDS011;51077;42.716;23.344;2023-04-29T04:15:35;16.10;;;8.43;;
64667;SDS011;51077;42.716;23.344;2023-04-29T04:18:01;21.88;;;9.77;;
64667;SDS011;51077;42.716;23.344;2023-04-29T04:20:26;15.37;;;8.97;;
64667;SDS011;51077;42.716;23.344;2023-04-29T04:22:52;13.67;;;8.20;;
64667;SDS011;51077;42.716;23.344;2023-04-29T04:25:18;14.63;;;7.40;;
64667;SDS011;51077;42.716;23.344;2023-04-29T04:27:44;11.83;;;7.03;;
64667;SDS011;51077;42.716;23.344;2023-04-29T04:30:09;16.57;;;7.80;;
64667;SDS011;51077;42.716;23.344;2023-04-29T04:32:35;15.90;;;6.72;;
64667;SDS011;51077;42.716;23.344;2023-04-29T04:35:01;12.30;;;6.23;;
64667;SDS011;51077;42.716;23.344;2023-04-29T04:37:26;14.63;;;6.03;;
64667;SDS011;51077;42.716;23.344;2023-04-29T04:39:52;9.37;;;5.70;;
64667;SDS011;51077;42.716;23.344;2023-04-29T04:42:17;13.00;;;6.33;;
64667;SDS011;51077;42.716;23.344;2023-04-29T04:44:43;10.13;;;5.90;;
64667;SDS011;51077;42.716;23.344;2023-04-29T04:47:08;11.60;;;5.77;;
64667;SDS011;51077;42.716;23.344;2023-04-29T04:49:35;10.00;;;5.68;;
64667;SDS011;51077;42.716;23.344;2023-04-29T04:52:00;11.20;;;6.00;;
64667;SDS011;51077;42.716;23.344;2023-04-29T04:54:26;11.30;;;5.63;;
64667;SDS011;51077;42.716;23.344;2023-04-29T04:56:51;10.77;;;5.67;;
64667;SDS011;51077;42.716;23.344;2023-04-29T04:59:16;9.70;;;5.70;;
64667;SDS011;51077;42.716;23.344;2023-04-29T05:01:42;7.80;;;5.13;;
64667;SDS011;51077;42.716;23.344;2023-04-29T05:04:07;11.93;;;5.43;;
64667;SDS011;51077;42.716;23.344;2023-04-29T05:06:32;10.37;;;5.53;;
64667;SDS011;51077;42.716;23.344;2023-04-29T05:08:58;11.27;;;5.87;;
64667;SDS011;51077;42.716;23.344;2023-04-29T05:11:23;10.17;;;4.73;;
64667;SDS011;51077;42.716;23.344;2023-04-29T05:13:48;10.10;;;5.73;;
64667;SDS011;51077;42.716;23.344;2023-04-29T05:16:14;11.63;;;5.93;;
64667;SDS011;51077;42.716;23.344;2023-04-29T05:18:41;11.80;;;5.90;;
64667;SDS011;51077;42.716;23.344;2023-04-29T05:21:09;10.60;;;6.15;;
64667;SDS011;51077;42.716;23.344;2023-04-29T05:23:35;10.00;;;5.85;;
64667;SDS011;51077;42.716;23.344;2023-04-29T05:26:01;10.63;;;5.70;;
64667;SDS011;51077;42.716;23.344;2023-04-29T05:28:26;10.83;;;6.43;;
64667;SDS011;51077;42.716;23.344;2023-04-29T05:30:51;14.40;;;5.80;;
64667;SDS011;51077;42.716;23.344;2023-04-29T05:33:17;11.50;;;6.50;;
64667;SDS011;51077;42.716;23.344;2023-04-29T05:35:42;14.80;;;6.50;;
64667;SDS011;51077;42.716;23.344;2023-04-29T05:38:07;10.63;;;5.30;;
64667;SDS011;51077;42.716;23.344;2023-04-29T05:40:33;14.93;;;6.50;;
64667;SDS011;51077;42.716;23.344;2023-04-29T05:42:58;11.27;;;5.77;;
64667;SDS011;51077;42.716;23.344;2023-04-29T05:45:24;10.43;;;5.90;;
64667;SDS011;51077;42.716;23.344;2023-04-29T05:47:49;10.10;;;6.17;;
64667;SDS011;51077;42.716;23.344;2023-04-29T05:50:15;13.57;;;5.80;;
64667;SDS011;51077;42.716;23.344;2023-04-29T05:52:40;14.07;;;5.83;;
64667;SDS011;51077;42.716;23.344;2023-04-29T05:55:06;13.83;;;6.13;;
64667;SDS011;51077;42.716;23.344;2023-04-29T05:57:31;13.60;;;5.93;;
64667;SDS011;51077;42.716;23.344;2023-04-29T05:59:57;9.00;;;4.90;;
64667;SDS011;51077;42.716;23.344;2023-04-29T06:02:24;10.18;;;5.32;;
64667;SDS011;51077;42.716;23.344;2023-04-29T06:04:49;12.23;;;6.28;;
64667;SDS011;51077;42.716;23.344;2023-04-29T06:07:15;9.00;;;5.57;;
64667;SDS011;51077;42.716;23.344;2023-04-29T06:09:41;9.90;;;6.03;;
64667;SDS011;51077;42.716;23.344;2023-04-29T06:12:08;13.25;;;6.00;;
64667;SDS011;51077;42.716;23.344;2023-04-29T06:14:33;13.43;;;5.43;;
64667;SDS011;51077;42.716;23.344;2023-04-29T06:16:58;9.20;;;6.10;;
64667;SDS011;51077;42.716;23.344;2023-04-29T06:19:24;15.30;;;5.40;;
64667;SDS011;51077;42.716;23.344;2023-04-29T06:21:49;12.30;;;6.03;;
64667;SDS011;51077;42.716;23.344;2023-04-29T06:24:15;8.37;;;5.47;;
64667;SDS011;51077;42.716;23.344;2023-04-29T06:26:40;11.03;;;5.67;;
64667;SDS011;51077;42.716;23.344;2023-04-29T06:29:05;16.77;;;5.30;;
64667;SDS011;51077;42.716;23.344;2023-04-29T06:31:31;9.73;;;5.70;;
64667;SDS011;51077;42.716;23.344;2023-04-29T06:33:57;12.05;;;5.10;;
64667;SDS011;51077;42.716;23.344;2023-04-29T06:36:22;10.33;;;4.80;;
64667;SDS011;51077;42.716;23.344;2023-04-29T06:38:47;11.53;;;5.07;;
64667;SDS011;51077;42.716;23.344;2023-04-29T06:41:13;10.83;;;4.80;;
64667;SDS011;51077;42.716;23.344;2023-04-29T06:43:38;8.17;;;4.40;;
64667;SDS011;51077;42.716;23.344;2023-04-29T06:46:04;8.20;;;4.90;;
64667;SDS011;51077;42.716;23.344;2023-04-29T06:48:30;8.57;;;4.43;;
64667;SDS011;51077;42.716;23.344;2023-04-29T06:50:56;9.10;;;4.83;;
64667;SDS011;51077;42.716;23.344;2023-04-29T06:53:22;7.85;;;4.97;;
64667;SDS011;51077;42.716;23.344;2023-04-29T06:55:48;7.70;;;4.40;;
64667;SDS011;51077;42.716;23.344;2023-04-29T06:58:15;10.15;;;4.65;;
64667;SDS011;51077;42.716;23.344;2023-04-29T07:00:45;8.27;;;4.18;;
64667;SDS011;51077;42.716;23.344;2023-04-29T07:03:12;6.68;;;3.58;;
64667;SDS011;51077;42.716;23.344;2023-04-29T07:05:38;6.38;;;4.13;;
64667;SDS011;51077;42.716;23.344;2023-04-29T07:08:05;10.13;;;4.25;;
64667;SDS011;51077;42.716;23.344;2023-04-29T07:10:31;7.50;;;3.55;;
64667;SDS011;51077;42.716;23.344;2023-04-29T07:12:57;8.83;;;4.17;;
64667;SDS011;51077;42.716;23.344;2023-04-29T07:15:24;8.57;;;4.00;;
64667;SDS011;51077;42.716;23.344;2023-04-29T07:17:50;8.85;;;4.68;;
64667;SDS011;51077;42.716;23.344;2023-04-29T07:20:15;8.63;;;3.97;;
64667;SDS011;51077;42.716;23.344;2023-04-29T07:22:41;8.10;;;4.23;;
64667;SDS011;51077;42.716;23.344;2023-04-29T07:25:06;9.47;;;4.00;;
64667;SDS011;51077;42.716;23.344;2023-04-29T07:27:33;7.40;;;3.80;;
64667;SDS011;51077;42.716;23.344;2023-04-29T07:29:59;6.70;;;3.63;;
64667;SDS011;51077;42.716;23.344;2023-04-29T07:32:27;7.53;;;3.75;;
64667;SDS011;51077;42.716;23.344;2023-04-29T07:34:55;8.98;;;3.45;;
64667;SDS011;51077;42.716;23.344;2023-04-29T07:37:21;9.57;;;4.43;;
64667;SDS011;51077;42.716;23.344;2023-04-29T07:39:46;9.33;;;3.90;;
64667;SDS011;51077;42.716;23.344;2023-04-29T07:42:12;7.40;;;3.47;;
64667;SDS011;51077;42.716;23.344;2023-04-29T07:44:37;7.97;;;3.77;;
64667;SDS011;51077;42.716;23.344;2023-04-29T07:47:03;8.15;;;3.22;;
64667;SDS011;51077;42.716;23.344;2023-04-29T07:49:29;7.73;;;3.77;;
64667;SDS011;51077;42.716;23.344;2023-04-29T07:51:54;6.40;;;3.00;;
64667;SDS011;51077;42.716;23.344;2023-04-29T07:54:19;6.00;;;3.27;;
64667;SDS011;51077;42.716;23.344;2023-04-29T07:56:46;6.95;;;3.30;;
64667;SDS011;51077;42.716;23.344;2023-04-29T07:59:12;6.43;;;3.50;;
64667;SDS011;51077;42.716;23.344;2023-04-29T08:01:39;9.40;;;3.33;;
64667;SDS011;51077;42.716;23.344;2023-04-29T08:04:05;6.93;;;3.10;;
64667;SDS011;51077;42.716;23.344;2023-04-29T08:06:31;8.02;;;3.40;;
64667;SDS011;51077;42.716;23.344;2023-04-29T08:08:56;5.20;;;3.00;;
64667;SDS011;51077;42.716;23.344;2023-04-29T08:11:22;7.20;;;3.10;;
64667;SDS011;51077;42.716;23.344;2023-04-29T08:13:48;5.38;;;3.00;;
64667;SDS011;51077;42.716;23.344;2023-04-29T08:16:13;6.57;;;3.47;;
64667;SDS011;51077;42.716;23.344;2023-04-29T08:18:39;5.87;;;2.73;;
64667;SDS011;51077;42.716;23.344;2023-04-29T08:21:05;6.20;;;3.00;;
64667;SDS011;51077;42.716;23.344;2023-04-29T08:23:31;6.40;;;2.60;;
64667;SDS011;51077;42.716;23.344;2023-04-29T08:25:57;5.07;;;2.87;;
64667;SDS011;51077;42.716;23.344;2023-04-29T08:28:22;10.10;;;3.10;;
64667;SDS011;51077;42.716;23.344;2023-04-29T08:30:48;7.87;;;3.23;;
64667;SDS011;51077;42.716;23.344;2023-04-29T08:33:14;7.27;;;2.83;;
64667;SDS011;51077;42.716;23.344;2023-04-29T08:35:40;5.13;;;2.20;;
64667;SDS011;51077;42.716;23.344;2023-04-29T08:38:06;5.05;;;2.50;;
64667;SDS011;51077;42.716;23.344;2023-04-29T08:40:40;6.88;;;2.38;;
64667;SDS011;51077;42.716;23.344;2023-04-29T08:43:07;7.07;;;2.58;;
64667;SDS011;51077;42.716;23.344;2023-04-29T08:45:34;5.85;;;2.30;;
64667;SDS011;51077;42.716;23.344;2023-04-29T08:48:03;4.57;;;2.15;;
64667;SDS011;51077;42.716;23.344;2023-04-29T08:50:30;6.90;;;2.20;;
64667;SDS011;51077;42.716;23.344;2023-04-29T08:53:01;4.93;;;2.53;;
64667;SDS011;51077;42.716;23.344;2023-04-29T08:55:26;4.30;;;2.20;;
64667;SDS011;51077;42.716;23.344;2023-04-29T08:57:53;4.77;;;2.40;;
64667;SDS011;51077;42.716;23.344;2023-04-29T09:00:20;5.47;;;1.95;;
64667;SDS011;51077;42.716;23.344;2023-04-29T09:02:48;4.25;;;2.28;;
64667;SDS011;51077;42.716;23.344;2023-04-29T09:05:15;4.80;;;2.03;;
64667;SDS011;51077;42.716;23.344;2023-04-29T09:07:40;4.10;;;2.33;;
64667;SDS011;51077;42.716;23.344;2023-04-29T09:10:07;5.10;;;2.65;;
64667;SDS011;51077;42.716;23.344;2023-04-29T09:12:33;4.72;;;2.17;;
64667;SDS011;51077;42.716;23.344;2023-04-29T09:15:00;4.60;;;1.95;;
64667;SDS011;51077;42.716;23.344;2023-04-29T09:22:49;5.03;;;2.10;;
64667;SDS011;51077;42.716;23.344;2023-04-29T09:25:15;4.47;;;2.42;;
64667;SDS011;51077;42.716;23.344;2023-04-29T09:27:41;3.63;;;2.23;;
64667;SDS011;51077;42.716;23.344;2023-04-29T09:30:07;6.37;;;2.30;;
64667;SDS011;51077;42.716;23.344;2023-04-29T09:32:33;6.32;;;2.40;;
64667;SDS011;51077;42.716;23.344;2023-04-29T09:35:19;4.87;;;1.93;;
64667;SDS011;51077;42.716;23.344;2023-04-29T09:37:51;5.82;;;2.30;;
64667;SDS011;51077;42.716;23.344;2023-04-29T09:40:29;3.92;;;2.17;;
64667;SDS011;51077;42.716;23.344;2023-04-29T09:42:58;4.10;;;1.95;;
64667;SDS011;51077;42.716;23.344;2023-04-29T09:45:37;4.45;;;2.30;;
64667;SDS011;51077;42.716;23.344;2023-04-29T09:48:06;4.20;;;2.40;;
64667;SDS011;51077;42.716;23.344;2023-04-29T09:50:32;5.72;;;2.67;;
64667;SDS011;51077;42.716;23.344;2023-04-29T09:52:58;7.73;;;2.47;;
64667;SDS011;51077;42.716;23.344;2023-04-29T09:55:24;6.00;;;2.33;;
64667;SDS011;51077;42.716;23.344;2023-04-29T09:57:51;4.43;;;2.22;;
64667;SDS011;51077;42.716;23.344;2023-04-29T10:00:17;5.28;;;2.10;;
64667;SDS011;51077;42.716;23.344;2023-04-29T10:02:44;3.47;;;2.07;;
64667;SDS011;51077;42.716;23.344;2023-04-29T10:05:14;6.07;;;2.70;;
64667;SDS011;51077;42.716;23.344;2023-04-29T10:07:40;3.97;;;2.20;;
64667;SDS011;51077;42.716;23.344;2023-04-29T10:10:06;5.57;;;2.33;;
64667;SDS011;51077;42.716;23.344;2023-04-29T10:12:36;3.78;;;2.20;;
64667;SDS011;51077;42.716;23.344;2023-04-29T10:17:42;4.88;;;2.55;;
64667;SDS011;51077;42.716;23.344;2023-04-29T10:20:38;5.95;;;2.28;;
64667;SDS011;51077;42.716;23.344;2023-04-29T10:23:09;5.43;;;2.05;;
64667;SDS011;51077;42.716;23.344;2023-04-29T10:25:37;7.00;;;2.20;;
64667;SDS011;51077;42.716;23.344;2023-04-29T10:28:04;4.70;;;2.50;;
64667;SDS011;51077;42.716;23.344;2023-04-29T10:30:33;6.68;;;2.40;;
64667;SDS011;51077;42.716;23.344;2023-04-29T10:33:00;5.55;;;2.65;;
64667;SDS011;51077;42.716;23.344;2023-04-29T10:35:27;4.90;;;2.50;;
64667;SDS011;51077;42.716;23.344;2023-04-29T10:37:53;4.67;;;2.23;;
64667;SDS011;51077;42.716;23.344;2023-04-29T10:40:27;5.78;;;2.30;;
64667;SDS011;51077;42.716;23.344;2023-04-29T10:43:00;4.28;;;2.50;;
64667;SDS011;51077;42.716;23.344;2023-04-29T10:45:29;10.07;;;2.67;;
64667;SDS011;51077;42.716;23.344;2023-04-29T10:50:33;5.57;;;2.30;;
64667;SDS011;51077;42.716;23.344;2023-04-29T10:53:04;7.32;;;2.40;;
64667;SDS011;51077;42.716;23.344;2023-04-29T10:55:30;4.97;;;2.40;;
64667;SDS011;51077;42.716;23.344;2023-04-29T10:57:56;5.25;;;2.20;;
64667;SDS011;51077;42.716;23.344;2023-04-29T11:00:25;4.63;;;2.33;;
64667;SDS011;51077;42.716;23.344;2023-04-29T11:02:55;5.80;;;2.40;;
64667;SDS011;51077;42.716;23.344;2023-04-29T11:05:32;3.85;;;2.13;;
64667;SDS011;51077;42.716;23.344;2023-04-29T11:13:25;5.03;;;2.10;;
64667;SDS011;51077;42.716;23.344;2023-04-29T11:15:53;5.35;;;2.00;;
64667;SDS011;51077;42.716;23.344;2023-04-29T11:18:31;4.22;;;2.25;;
64667;SDS011;51077;42.716;23.344;2023-04-29T11:21:19;4.38;;;2.05;;
64667;SDS011;51077;42.716;23.344;2023-04-29T11:23:44;4.55;;;1.90;;
64667;SDS011;51077;42.716;23.344;2023-04-29T11:26:11;3.70;;;2.10;;
64667;SDS011;51077;42.716;23.344;2023-04-29T11:28:40;4.30;;;2.17;;
64667;SDS011;51077;42.716;23.344;2023-04-29T11:31:06;4.57;;;2.58;;
64667;SDS011;51077;42.716;23.344;2023-04-29T11:33:32;4.30;;;2.40;;
64667;SDS011;51077;42.716;23.344;2023-04-29T11:35:58;5.13;;;2.10;;
64667;SDS011;51077;42.716;23.344;2023-04-29T11:38:24;5.63;;;2.10;;
64667;SDS011;51077;42.716;23.344;2023-04-29T11:40:51;4.72;;;2.03;;
64667;SDS011;51077;42.716;23.344;2023-04-29T11:43:16;4.17;;;2.30;;
64667;SDS011;51077;42.716;23.344;2023-04-29T11:45:43;4.15;;;2.28;;
64667;SDS011;51077;42.716;23.344;2023-04-29T11:48:16;4.22;;;2.28;;
64667;SDS011;51077;42.716;23.344;2023-04-29T11:50:42;5.38;;;1.92;;
64667;SDS011;51077;42.716;23.344;2023-04-29T11:53:08;3.67;;;1.60;;
64667;SDS011;51077;42.716;23.344;2023-04-29T11:55:34;3.40;;;1.80;;
64667;SDS011;51077;42.716;23.344;2023-04-29T11:57:59;4.90;;;1.80;;
64667;SDS011;51077;42.716;23.344;2023-04-29T12:00:25;5.77;;;2.30;;
64667;SDS011;51077;42.716;23.344;2023-04-29T12:02:50;3.90;;;2.10;;
64667;SDS011;51077;42.716;23.344;2023-04-29T12:05:15;6.03;;;2.40;;
64667;SDS011;51077;42.716;23.344;2023-04-29T12:07:42;4.57;;;1.80;;
64667;SDS011;51077;42.716;23.344;2023-04-29T12:10:09;4.33;;;2.20;;
64667;SDS011;51077;42.716;23.344;2023-04-29T12:12:36;4.78;;;2.30;;
64667;SDS011;51077;42.716;23.344;2023-04-29T12:15:04;4.72;;;2.20;;
64667;SDS011;51077;42.716;23.344;2023-04-29T12:17:31;4.22;;;1.95;;
64667;SDS011;51077;42.716;23.344;2023-04-29T12:19:56;4.67;;;1.67;;
64667;SDS011;51077;42.716;23.344;2023-04-29T12:22:22;4.67;;;1.80;;
64667;SDS011;51077;42.716;23.344;2023-04-29T12:24:55;3.30;;;1.60;;
64667;SDS011;51077;42.716;23.344;2023-04-29T12:27:21;5.13;;;1.90;;
64667;SDS011;51077;42.716;23.344;2023-04-29T12:29:46;5.60;;;1.90;;
64667;SDS011;51077;42.716;23.344;2023-04-29T12:32:15;5.43;;;2.00;;
64667;SDS011;51077;42.716;23.344;2023-04-29T12:34:41;4.75;;;2.20;;
64667;SDS011;51077;42.716;23.344;2023-04-29T12:37:08;4.17;;;2.03;;
64667;SDS011;51077;42.716;23.344;2023-04-29T12:39:33;5.90;;;1.70;;
64667;SDS011;51077;42.716;23.344;2023-04-29T12:42:00;4.85;;;1.58;;
64667;SDS011;51077;42.716;23.344;2023-04-29T12:44:35;2.95;;;1.50;;
64667;SDS011;51077;42.716;23.344;2023-04-29T12:47:10;4.88;;;1.73;;
64667;SDS011;51077;42.716;23.344;2023-04-29T12:49:37;2.92;;;1.50;;
64667;SDS011;51077;42.716;23.344;2023-04-29T12:52:06;2.83;;;1.50;;
64667;SDS011;51077;42.716;23.344;2023-04-29T12:54:34;3.30;;;1.52;;
64667;SDS011;51077;42.716;23.344;2023-04-29T12:57:05;4.47;;;1.40;;
64667;SDS011;51077;42.716;23.344;2023-04-29T12:59:31;3.07;;;1.60;;
64667;SDS011;51077;42.716;23.344;2023-04-29T13:01:57;3.47;;;1.60;;
64667;SDS011;51077;42.716;23.344;2023-04-29T13:04:22;5.50;;;1.70;;
64667;SDS011;51077;42.716;23.344;2023-04-29T13:06:47;5.70;;;1.50;;
64667;SDS011;51077;42.716;23.344;2023-04-29T13:09:13;4.27;;;1.60;;
64667;SDS011;51077;42.716;23.344;2023-04-29T13:11:38;2.70;;;1.23;;
64667;SDS011;51077;42.716;23.344;2023-04-29T13:14:07;2.97;;;1.60;;
64667;SDS011;51077;42.716;23.344;2023-04-29T13:16:32;3.70;;;1.65;;
64667;SDS011;51077;42.716;23.344;2023-04-29T13:18:58;6.13;;;1.75;;
64667;SDS011;51077;42.716;23.344;2023-04-29T13:21:24;4.32;;;1.60;;
64667;SDS011;51077;42.716;23.344;2023-04-29T13:23:51;3.40;;;1.83;;
64667;SDS011;51077;42.716;23.344;2023-04-29T13:26:17;5.43;;;1.87;;
64667;SDS011;51077;42.716;23.344;2023-04-29T13:28:42;4.27;;;2.00;;
64667;SDS011;51077;42.716;23.344;2023-04-29T13:31:08;3.30;;;1.70;;
64667;SDS011;51077;42.716;23.344;2023-04-29T13:33:33;5.73;;;1.50;;
64667;SDS011;51077;42.716;23.344;2023-04-29T13:35:58;4.17;;;1.63;;
64667;SDS011;51077;42.716;23.344;2023-04-29T13:38:24;3.30;;;1.80;;
64667;SDS011;51077;42.716;23.344;2023-04-29T13:40:49;5.63;;;1.70;;
64667;SDS011;51077;42.716;23.344;2023-04-29T13:43:15;4.25;;;2.13;;
64667;SDS011;51077;42.716;23.344;2023-04-29T13:45:41;5.33;;;3.03;;
64667;SDS011;51077;42.716;23.344;2023-04-29T13:48:06;8.27;;;4.03;;
64667;SDS011;51077;42.716;23.344;2023-04-29T13:50:32;7.10;;;3.17;;
64667;SDS011;51077;42.716;23.344;2023-04-29T13:52:58;6.63;;;3.13;;
64667;SDS011;51077;42.716;23.344;2023-04-29T13:55:24;5.35;;;2.85;;
64667;SDS011;51077;42.716;23.344;2023-04-29T13:57:50;6.40;;;2.67;;
64667;SDS011;51077;42.716;23.344;2023-04-29T14:00:16;4.63;;;2.28;;
64667;SDS011;51077;42.716;23.344;2023-04-29T14:02:41;7.03;;;2.40;;
64667;SDS011;51077;42.716;23.344;2023-04-29T14:05:07;6.43;;;2.70;;
64667;SDS011;51077;42.716;23.344;2023-04-29T14:07:34;6.63;;;2.65;;
64667;SDS011;51077;42.716;23.344;2023-04-29T14:09:59;3.77;;;2.13;;
64667;SDS011;51077;42.716;23.344;2023-04-29T14:12:25;4.07;;;1.93;;
64667;SDS011;51077;42.716;23.344;2023-04-29T14:14:50;4.80;;;1.90;;
64667;SDS011;51077;42.716;23.344;2023-04-29T14:17:16;3.83;;;1.47;;
64667;SDS011;51077;42.716;23.344;2023-04-29T14:19:41;2.37;;;1.27;;
64667;SDS011;51077;42.716;23.344;2023-04-29T14:22:06;2.20;;;1.10;;
64667;SDS011;51077;42.716;23.344;2023-04-29T14:24:32;4.13;;;1.70;;
64667;SDS011;51077;42.716;23.344;2023-04-29T14:26:57;3.07;;;1.37;;
64667;SDS011;51077;42.716;23.344;2023-04-29T14:29:23;3.77;;;2.07;;
64667;SDS011;51077;42.716;23.344;2023-04-29T14:31:48;3.03;;;1.33;;
64667;SDS011;51077;42.716;23.344;2023-04-29T14:34:14;2.23;;;1.40;;
64667;SDS011;51077;42.716;23.344;2023-04-29T14:36:39;5.00;;;1.57;;
64667;SDS011;51077;42.716;23.344;2023-04-29T14:39:05;2.97;;;1.30;;
64667;SDS011;51077;42.716;23.344;2023-04-29T14:41:30;4.00;;;1.23;;
64667;SDS011;51077;42.716;23.344;2023-04-29T14:43:55;4.80;;;2.40;;
64667;SDS011;51077;42.716;23.344;2023-04-29T14:46:21;6.80;;;3.20;;
64667;SDS011;51077;42.716;23.344;2023-04-29T14:48:47;5.50;;;2.38;;
64667;SDS011;51077;42.716;23.344;2023-04-29T14:51:13;4.47;;;2.38;;
64667;SDS011;51077;42.716;23.344;2023-04-29T14:53:39;5.97;;;2.60;;
64667;SDS011;51077;42.716;23.344;2023-04-29T14:56:04;5.50;;;2.30;;
64667;SDS011;51077;42.716;23.344;2023-04-29T14:58:30;3.63;;;1.67;;